CYYY

Mont Joli Airport

Mont-Joli, Quebec, Canada
METAR CYYY 221400Z 27019G26KT 30SM SCT040 09/03 A2988 RMK SC3 SLP122
Observed Flight Rules
Sep-22 @ 14:00 UTC (an hour ago) Visual Flight Rules
Wind Visibility Clouds
270° at 19 knots
 Gusting to 26 knots
30 miles
Temperatures Readings
Current 9°C / 48°F
Dewpoint 3°C / 37°F
Humidity 66%
Altimeter 29.88" Hg
Pressure 1012.2 hPa
Elevation 52
METAR CYYY 221400Z 27019G26KT 30SM SCT040 09/03 A2988 RMK SC3 SLP122
Observed Flight Rules
Sep-22 @ 14:00 UTC
(an hour ago)
VFR
Wind Visibility
270° at 19 knots
 Gusting to 26 knots
30 miles
Clouds
Temperature Dewpoint
9°C / 48°F 3°C / 37°F
Humidity Altimeter Pressure
66% 29.88" Hg 1012.2 hPa